createdAt,value
2018-06-18T00:10:43.567Z,18.96
2018-06-18T00:13:14.159Z,18.94
2018-06-18T00:15:43.947Z,18.88
2018-06-18T00:18:12.784Z,18.89
2018-06-18T00:20:41.561Z,18.88
2018-06-18T00:23:10.193Z,18.85
2018-06-18T00:25:38.693Z,18.86
2018-06-18T00:28:07.179Z,18.74
2018-06-18T00:30:35.831Z,18.85
2018-06-18T00:33:04.514Z,18.85
2018-06-18T00:35:33.170Z,18.85
2018-06-18T00:38:02.190Z,18.85
2018-06-18T00:40:30.776Z,18.84
2018-06-18T00:42:59.510Z,18.81
2018-06-18T00:45:28.362Z,18.79
2018-06-18T00:47:56.799Z,18.76
2018-06-18T00:50:24.961Z,18.59
2018-06-18T00:52:53.401Z,18.71
2018-06-18T00:55:33.295Z,18.69
2018-06-18T00:58:01.858Z,18.66
2018-06-18T01:00:30.344Z,18.63
2018-06-18T01:02:58.928Z,18.62
2018-06-18T01:05:27.305Z,18.62
2018-06-18T01:07:55.764Z,18.59
2018-06-18T01:10:24.781Z,18.38
2018-06-18T01:12:53.204Z,18.62
2018-06-18T01:15:22.097Z,18.61
2018-06-18T01:17:50.509Z,18.60
2018-06-18T01:20:18.953Z,18.58
2018-06-18T01:23:56.005Z,18.58
2018-06-18T01:26:24.561Z,18.54
2018-06-18T01:28:53.316Z,18.52
2018-06-18T01:31:22.085Z,18.48
2018-06-18T01:33:51.536Z,18.44
2018-06-18T01:36:20.088Z,18.37
2018-06-18T01:38:48.982Z,18.25
2018-06-18T01:41:17.325Z,18.15
2018-06-18T01:43:45.764Z,18.09
2018-06-18T01:46:14.767Z,18.11
2018-06-18T01:48:46.003Z,18.12
2018-06-18T01:51:16.970Z,18.10
2018-06-18T01:53:48.417Z,18.04
2018-06-18T01:56:16.749Z,17.94
2018-06-18T01:58:45.228Z,17.91
2018-06-18T02:01:13.564Z,17.87
2018-06-18T02:03:41.644Z,17.75
2018-06-18T02:06:10.280Z,17.85
2018-06-18T02:08:39.068Z,17.85
2018-06-18T02:11:07.420Z,17.74
2018-06-18T02:13:35.924Z,17.85
2018-06-18T02:16:04.404Z,17.80
2018-06-18T02:18:33.071Z,17.78
2018-06-18T02:21:01.514Z,17.78
2018-06-18T02:23:30.425Z,17.61
2018-06-18T02:25:58.860Z,17.69
2018-06-18T02:28:32.627Z,17.63
2018-06-18T02:31:06.711Z,17.57
2018-06-18T02:33:40.517Z,17.48
2018-06-18T02:36:14.413Z,17.40
2018-06-18T02:39:14.308Z,17.34
2018-06-18T02:41:43.632Z,17.29
2018-06-18T02:44:12.192Z,17.24
2018-06-18T02:46:40.795Z,17.19
2018-06-18T02:49:09.717Z,17.17
2018-06-18T02:51:38.258Z,17.16
2018-06-18T02:54:07.354Z,17.15
2018-06-18T02:56:57.677Z,17.19
2018-06-18T02:59:25.985Z,17.26
2018-06-18T03:01:54.633Z,17.27
2018-06-18T03:04:23.468Z,17.28
2018-06-18T03:06:51.988Z,17.25
2018-06-18T03:09:20.480Z,17.23
2018-06-18T03:11:49.056Z,17.22
2018-06-18T03:14:18.651Z,17.19
2018-06-18T03:16:46.749Z,17.21
2018-06-18T03:19:20.784Z,17.24
2018-06-18T03:21:54.496Z,17.29
2018-06-18T03:24:28.946Z,17.34
2018-06-18T03:27:02.933Z,17.35
2018-06-18T03:29:33.011Z,17.36
2018-06-18T03:32:03.807Z,17.39
2018-06-18T03:34:32.521Z,17.39
2018-06-18T03:37:01.084Z,17.42
2018-06-18T03:39:29.380Z,17.42
2018-06-18T03:41:58.051Z,17.29
2018-06-18T03:44:30.652Z,17.42
2018-06-18T03:47:02.096Z,17.44
2018-06-18T03:49:30.448Z,17.46
2018-06-18T03:51:59.284Z,17.48
2018-06-18T03:54:27.768Z,17.51
2018-06-18T03:56:56.264Z,17.54
2018-06-18T03:59:24.943Z,17.55
2018-06-18T04:04:06.906Z,17.44
2018-06-18T04:06:41.015Z,17.59
2018-06-18T04:09:14.744Z,17.59
2018-06-18T04:11:48.588Z,17.59
2018-06-18T04:14:17.125Z,17.59
2018-06-18T04:16:45.638Z,17.59
2018-06-18T04:19:14.607Z,17.45
2018-06-18T04:21:43.355Z,17.46
2018-06-18T04:24:11.477Z,17.61
2018-06-18T04:26:40.533Z,17.63
2018-06-18T04:29:08.826Z,17.65
2018-06-18T04:31:37.301Z,17.52
2018-06-18T04:34:19.292Z,17.39
2018-06-18T04:36:47.652Z,17.52
2018-06-18T04:39:16.234Z,17.67
2018-06-18T04:41:50.388Z,17.70
2018-06-18T04:44:23.879Z,17.73
2018-06-18T04:46:58.033Z,17.76
2018-06-18T04:49:31.872Z,17.76
2018-06-18T04:52:00.082Z,17.76
2018-06-18T04:54:28.908Z,17.75
2018-06-18T04:56:57.256Z,17.74
2018-06-18T04:59:25.648Z,17.77
2018-06-18T05:01:54.603Z,17.84
2018-06-18T05:04:22.890Z,17.92
2018-06-18T05:06:51.244Z,18.02
2018-06-18T05:09:33.200Z,18.08
2018-06-18T05:12:01.688Z,18.03
2018-06-18T05:14:29.715Z,18.15
2018-06-18T05:16:58.835Z,18.10
2018-06-18T05:19:27.055Z,18.01
2018-06-18T05:21:55.186Z,17.94
2018-06-18T05:24:23.628Z,17.81
2018-06-18T05:26:53.488Z,17.90
2018-06-18T05:29:23.481Z,17.77
2018-06-18T05:31:52.508Z,17.88
2018-06-18T05:34:23.068Z,17.76
2018-06-18T05:36:52.200Z,17.88
2018-06-18T05:39:20.664Z,17.92
2018-06-18T05:41:49.034Z,17.92
2018-06-18T05:44:17.368Z,17.93
2018-06-18T05:46:46.012Z,17.86
2018-06-18T05:49:16.263Z,18.02
2018-06-18T05:51:44.573Z,18.00
2018-06-18T05:54:13.025Z,18.29
2018-06-18T05:56:41.037Z,18.49
2018-06-18T05:59:09.476Z,18.72
2018-06-18T06:01:38.143Z,18.90
2018-06-18T06:04:06.408Z,18.98
2018-06-18T06:06:34.504Z,19.10
2018-06-18T06:09:02.924Z,19.16
2018-06-18T06:11:31.276Z,19.21
2018-06-18T06:13:59.507Z,19.25
2018-06-18T06:16:27.809Z,19.33
2018-06-18T06:18:55.988Z,19.41
2018-06-18T06:21:24.136Z,19.52
2018-06-18T06:23:52.527Z,19.60
2018-06-18T06:26:20.832Z,19.63
2018-06-18T06:28:49.132Z,19.57
2018-06-18T06:31:17.672Z,19.65
2018-06-18T06:33:45.864Z,19.89
2018-06-18T06:36:14.508Z,19.98
2018-06-18T06:38:42.619Z,20.06
2018-06-18T06:41:11.200Z,20.15
2018-06-18T06:43:39.532Z,20.30
2018-06-18T06:46:07.666Z,20.48
2018-06-18T06:48:35.848Z,20.62
2018-06-18T06:51:04.089Z,20.70
2018-06-18T06:53:32.673Z,20.77
2018-06-18T06:56:01.324Z,20.82
2018-06-18T06:58:29.501Z,20.93
2018-06-18T07:00:57.520Z,20.95
2018-06-18T07:03:26.368Z,20.99
2018-06-18T07:05:54.755Z,21.03
2018-06-18T07:08:22.845Z,21.03
2018-06-18T07:10:51.795Z,21.11
2018-06-18T07:13:20.580Z,21.22
2018-06-18T07:15:48.961Z,21.28
2018-06-18T07:18:17.407Z,21.33
2018-06-18T07:20:45.459Z,21.40
2018-06-18T07:23:14.036Z,21.51
2018-06-18T07:25:42.390Z,21.64
2018-06-18T07:28:10.431Z,21.73
2018-06-18T07:30:38.495Z,21.77
2018-06-18T07:33:07.300Z,21.82
2018-06-18T07:35:35.805Z,21.92
2018-06-18T07:38:04.270Z,21.99
2018-06-18T07:40:33.533Z,22.01
2018-06-18T07:43:01.590Z,21.96
2018-06-18T07:45:29.828Z,21.67
2018-06-18T07:47:58.581Z,21.76
2018-06-18T07:50:26.627Z,21.78
2018-06-18T07:52:54.666Z,21.96
2018-06-18T07:55:23.393Z,22.21
2018-06-18T07:57:51.440Z,22.44
2018-06-18T08:00:19.784Z,22.58
2018-06-18T08:02:48.312Z,22.71
2018-06-18T08:05:16.411Z,22.68
2018-06-18T08:07:44.882Z,22.63
2018-06-18T08:10:13.196Z,22.40
2018-06-18T08:12:41.281Z,22.42
2018-06-18T08:15:09.336Z,22.52
2018-06-18T08:17:37.814Z,22.72
2018-06-18T08:20:05.983Z,22.92
2018-06-18T08:22:34.317Z,23.24
2018-06-18T08:25:03.089Z,23.43
2018-06-18T08:27:31.681Z,23.80
2018-06-18T08:30:00.204Z,24.18
2018-06-18T08:32:28.672Z,24.31
2018-06-18T08:34:57.249Z,24.06
2018-06-18T08:37:25.567Z,23.82
2018-06-18T08:39:54.156Z,23.92
2018-06-18T08:42:22.390Z,24.12
2018-06-18T08:44:50.589Z,24.13
2018-06-18T08:47:18.694Z,23.77
2018-06-18T08:49:53.518Z,23.92
2018-06-18T08:52:27.118Z,23.49
2018-06-18T08:55:00.967Z,23.75
2018-06-18T08:57:34.791Z,23.99
2018-06-18T09:00:09.411Z,24.15
2018-06-18T09:02:42.024Z,24.02
2018-06-18T09:05:11.528Z,23.97
2018-06-18T09:07:45.482Z,24.06
2018-06-18T09:10:13.650Z,24.66
2018-06-18T09:12:42.104Z,25.16
2018-06-18T09:15:14.602Z,25.52
2018-06-18T09:17:42.660Z,25.72
2018-06-18T09:20:10.747Z,25.31
2018-06-18T09:22:39.295Z,25.51
2018-06-18T09:25:07.771Z,25.73
2018-06-18T09:27:36.940Z,26.01
2018-06-18T09:30:09.251Z,25.98
2018-06-18T09:32:37.531Z,25.75
2018-06-18T09:35:05.796Z,25.57
2018-06-18T09:37:34.473Z,25.31
2018-06-18T09:40:02.858Z,25.20
2018-06-18T09:42:31.273Z,25.63
2018-06-18T09:44:59.601Z,25.63
2018-06-18T09:47:27.688Z,26.16
2018-06-18T09:50:01.648Z,26.52
2018-06-18T09:52:36.132Z,26.69
2018-06-18T09:55:11.160Z,26.57
2018-06-18T09:57:45.084Z,26.52
2018-06-18T10:00:27.310Z,26.44
2018-06-18T10:02:56.247Z,26.32
2018-06-18T10:05:25.208Z,26.60
2018-06-18T10:07:53.253Z,26.89
2018-06-18T10:10:21.482Z,26.98
2018-06-18T10:12:49.789Z,27.01
2018-06-18T10:15:17.922Z,26.65
2018-06-18T10:17:46.342Z,26.29
2018-06-18T10:20:14.455Z,26.25
2018-06-18T10:22:42.480Z,26.60
2018-06-18T10:25:10.528Z,26.60
2018-06-18T10:27:38.673Z,26.34
2018-06-18T10:30:06.769Z,26.53
2018-06-18T10:32:40.514Z,26.65
2018-06-18T10:35:14.049Z,26.95
2018-06-18T10:37:47.929Z,27.25
2018-06-18T10:40:21.583Z,27.44
2018-06-18T10:42:55.672Z,27.30
2018-06-18T10:45:24.667Z,27.45
2018-06-18T10:47:53.256Z,27.62
2018-06-18T10:50:21.681Z,27.74
2018-06-18T11:36:30.234Z,29.43
2018-06-18T11:38:58.318Z,29.29
2018-06-18T11:41:27.015Z,29.25
2018-06-18T11:43:55.181Z,29.30
2018-06-18T11:46:23.311Z,29.34
2018-06-18T11:48:51.719Z,29.25
2018-06-18T11:51:19.967Z,29.06
2018-06-18T11:53:48.088Z,28.86
2018-06-18T11:56:16.196Z,29.09
2018-06-18T11:58:50.080Z,28.98
2018-06-18T12:01:24.101Z,28.57
2018-06-18T12:03:57.506Z,28.58
2018-06-18T12:06:31.508Z,28.57
2018-06-18T12:09:04.962Z,28.60
2018-06-18T12:11:34.037Z,28.42
2018-06-18T12:14:03.187Z,28.22
2018-06-18T12:16:36.281Z,28.07
2018-06-18T12:19:27.550Z,27.97
2018-06-18T12:25:17.286Z,27.92
2018-06-18T12:27:46.285Z,27.81
2018-06-18T12:30:14.838Z,27.58
2018-06-18T12:32:43.341Z,27.38
2018-06-18T12:35:12.273Z,27.08
2018-06-18T12:37:40.679Z,27.63
2018-06-18T12:40:11.092Z,27.97
2018-06-18T12:42:40.144Z,28.37
2018-06-18T12:45:14.841Z,28.47
2018-06-18T12:47:48.858Z,28.20
2018-06-18T12:50:23.081Z,28.29
2018-06-18T12:52:56.597Z,28.33
2018-06-18T12:55:30.010Z,28.67
2018-06-18T12:57:59.074Z,29.08
2018-06-18T13:00:27.157Z,29.02
2018-06-18T13:02:59.845Z,28.79
2018-06-18T13:05:29.431Z,28.65
2018-06-18T13:07:57.466Z,28.61
2018-06-18T13:10:25.829Z,28.60
2018-06-18T13:12:54.214Z,28.44
2018-06-18T13:15:22.424Z,28.13
2018-06-18T13:17:51.099Z,27.92
2018-06-18T13:20:19.384Z,27.79
2018-06-18T13:22:47.595Z,27.61
2018-06-18T13:25:15.746Z,27.31
2018-06-18T13:27:49.859Z,27.02
2018-06-18T13:30:18.084Z,26.84
2018-06-18T13:32:53.221Z,26.58
2018-06-18T13:35:23.175Z,26.59
2018-06-18T13:37:56.903Z,26.51
2018-06-18T13:40:31.343Z,26.04
2018-06-18T13:43:04.781Z,26.10
2018-06-18T13:45:44.036Z,26.12
2018-06-18T13:48:17.716Z,26.35
2018-06-18T13:50:45.922Z,26.47
2018-06-18T13:53:14.290Z,26.42
2018-06-18T13:55:42.546Z,26.32
2018-06-18T13:58:11.169Z,26.65
2018-06-18T14:00:39.347Z,26.76
2018-06-18T14:03:07.967Z,26.88
2018-06-18T14:05:36.181Z,27.01
2018-06-18T14:08:05.024Z,27.24
2018-06-18T14:10:33.724Z,27.57
2018-06-18T14:13:01.831Z,28.04
2018-06-18T14:15:30.190Z,27.85
2018-06-18T14:17:58.502Z,27.58
2018-06-18T14:20:27.237Z,27.35
2018-06-18T14:22:55.869Z,26.64
2018-06-18T14:25:23.978Z,26.90
2018-06-18T14:27:53.036Z,26.84
2018-06-18T14:30:26.536Z,27.11
2018-06-18T14:33:00.480Z,27.53
2018-06-18T14:35:38.110Z,27.91
2018-06-18T14:38:12.774Z,27.76
2018-06-18T14:40:41.241Z,27.39
2018-06-18T14:43:10.422Z,27.10
2018-06-18T14:45:38.986Z,26.90
2018-06-18T14:48:07.782Z,26.61
2018-06-18T14:50:36.846Z,26.57
2018-06-18T14:53:06.503Z,26.51
2018-06-18T14:55:34.889Z,26.52
2018-06-18T14:58:04.050Z,26.66
2018-06-18T15:00:33.635Z,26.92
2018-06-18T15:03:04.651Z,27.19
2018-06-18T15:05:39.666Z,27.46
2018-06-18T15:08:11.134Z,27.57
2018-06-18T15:10:46.375Z,27.32
2018-06-18T15:13:16.979Z,27.22
2018-06-18T15:15:53.870Z,26.84
2018-06-18T15:18:22.642Z,26.93
2018-06-18T15:20:53.835Z,26.76
2018-06-18T15:23:23.402Z,26.67
2018-06-18T15:25:52.762Z,27.02
2018-06-18T15:28:23.473Z,27.15
2018-06-18T15:30:52.456Z,27.11
2018-06-18T15:33:21.213Z,26.88
2018-06-18T15:35:50.146Z,26.55
2018-06-18T15:38:24.512Z,26.27
2018-06-18T15:40:54.628Z,26.31
2018-06-18T15:43:25.533Z,26.25
2018-06-18T15:45:55.636Z,26.31
2018-06-18T15:48:26.689Z,26.31
2018-06-18T15:50:55.336Z,26.42
2018-06-18T15:53:25.201Z,26.48
2018-06-18T15:55:54.809Z,26.72
2018-06-18T15:58:25.093Z,26.67
2018-06-18T16:00:54.965Z,26.81
2018-06-18T16:03:23.977Z,26.97
2018-06-18T16:05:54.774Z,27.02
2018-06-18T16:08:23.645Z,26.86
2018-06-18T16:10:52.684Z,26.67
2018-06-18T16:13:22.973Z,26.59
2018-06-18T16:15:56.133Z,26.48
2018-06-18T16:18:26.410Z,26.30
2018-06-18T16:20:54.812Z,26.26
2018-06-18T16:23:24.571Z,26.46
2018-06-18T16:25:54.120Z,26.68
2018-06-18T16:28:23.226Z,26.83
2018-06-18T16:30:51.756Z,26.83
2018-06-18T16:33:20.966Z,26.76
2018-06-18T16:35:49.181Z,26.66
2018-06-18T16:38:17.288Z,26.61
2018-06-18T16:40:46.730Z,26.67
2018-06-18T16:43:16.979Z,26.80
2018-06-18T16:45:46.227Z,26.81
2018-06-18T16:48:15.670Z,26.44
2018-06-18T16:50:44.722Z,26.11
2018-06-18T16:53:14.891Z,25.86
2018-06-18T16:55:45.015Z,26.17
2018-06-18T16:58:14.815Z,26.27
2018-06-18T17:00:43.233Z,26.37
2018-06-18T17:03:12.232Z,26.52
2018-06-18T17:05:40.697Z,26.64
2018-06-18T17:08:08.803Z,26.69
2018-06-18T17:10:37.256Z,26.73
2018-06-18T17:13:05.789Z,26.73
2018-06-18T17:15:34.548Z,26.67
2018-06-18T17:18:03.420Z,26.71
2018-06-18T17:20:31.682Z,26.68
2018-06-18T17:23:00.191Z,26.66
2018-06-18T17:25:30.884Z,26.68
2018-06-18T17:27:58.995Z,26.46
2018-06-18T17:30:28.064Z,26.73
2018-06-18T17:32:56.871Z,26.60
2018-06-18T17:35:25.060Z,26.80
2018-06-18T17:37:54.421Z,26.64
2018-06-18T17:40:22.827Z,26.81
2018-06-18T17:42:50.992Z,26.54
2018-06-18T17:45:19.533Z,26.91
2018-06-18T17:47:47.784Z,26.91
2018-06-18T17:50:15.989Z,26.23
2018-06-18T17:52:44.335Z,26.60
2018-06-18T17:55:12.376Z,26.59
2018-06-18T17:57:40.541Z,26.50
2018-06-18T18:00:09.030Z,26.37
2018-06-18T18:02:37.171Z,26.39
2018-06-18T18:05:05.481Z,26.15
2018-06-18T18:07:34.036Z,26.21
2018-06-18T18:10:02.408Z,26.02
2018-06-18T18:12:30.517Z,26.05
2018-06-18T18:14:59.256Z,26.05
2018-06-18T18:17:27.794Z,26.04
2018-06-18T18:19:56.159Z,25.98
2018-06-18T18:22:24.882Z,25.94
2018-06-18T18:24:54.186Z,25.82
2018-06-18T18:27:23.783Z,25.81
2018-06-18T18:29:52.173Z,25.69
2018-06-18T18:32:20.601Z,25.63
2018-06-18T18:34:48.893Z,25.41
2018-06-18T18:37:17.451Z,25.22
2018-06-18T18:39:45.525Z,25.12
2018-06-18T18:42:14.634Z,24.92
2018-06-18T18:44:43.093Z,24.28
2018-06-18T18:47:11.483Z,24.57
2018-06-18T18:49:39.918Z,24.47
2018-06-18T18:52:08.250Z,24.29
2018-06-18T18:55:58.107Z,24.25
2018-06-18T18:59:42.605Z,24.06
2018-06-18T19:02:10.846Z,24.01
2018-06-18T19:04:57.624Z,23.89
2018-06-18T19:07:35.216Z,23.88
2018-06-18T19:10:36.354Z,23.70
2018-06-18T19:13:07.262Z,23.70
2018-06-18T19:15:35.923Z,23.15
2018-06-18T19:18:05.730Z,23.52
2018-06-18T19:20:39.669Z,23.36
2018-06-18T19:23:08.239Z,23.30
2018-06-18T19:25:36.539Z,23.34
2018-06-18T19:28:08.124Z,23.10
2018-06-18T19:30:53.600Z,23.18
2018-06-18T19:33:26.826Z,22.96
2018-06-18T19:35:56.373Z,22.96
2018-06-18T19:38:25.381Z,22.89
2018-06-18T19:40:54.407Z,22.85
2018-06-18T19:43:23.354Z,22.83
2018-06-18T19:45:54.606Z,22.79
2018-06-18T19:48:27.295Z,22.57
2018-06-18T19:50:55.872Z,22.68
2018-06-18T19:53:24.525Z,22.64
2018-06-18T19:55:52.849Z,22.49
2018-06-18T19:58:21.289Z,22.53
2018-06-18T20:00:52.180Z,22.46
2018-06-18T20:03:21.976Z,22.40
2018-06-18T20:05:54.269Z,22.34
2018-06-18T20:08:38.461Z,21.61
2018-06-18T20:11:10.144Z,21.93
2018-06-18T20:13:48.354Z,22.01
2018-06-18T20:16:17.879Z,21.75
2018-06-18T20:18:47.230Z,22.08
2018-06-18T20:21:17.283Z,21.85
2018-06-18T20:23:45.493Z,21.54
2018-06-18T20:26:16.673Z,22.00
2018-06-18T20:28:44.781Z,21.98
2018-06-18T20:31:13.443Z,21.96
2018-06-18T20:33:45.354Z,21.78
2018-06-18T20:36:15.710Z,21.93
2018-06-18T20:38:44.247Z,21.82
2018-06-18T20:41:12.327Z,21.76
2018-06-18T20:43:54.203Z,21.81
2018-06-18T20:46:22.942Z,21.66
2018-06-18T20:48:51.497Z,21.72
2018-06-18T20:51:19.684Z,21.68
2018-06-18T20:53:48.389Z,21.65
2018-06-18T20:56:16.623Z,21.52
2018-06-18T20:58:45.522Z,21.11
2018-06-18T21:01:15.015Z,21.32
2018-06-18T21:03:43.383Z,21.46
2018-06-18T21:06:12.043Z,21.31
2018-06-18T21:08:45.069Z,21.35
2018-06-18T21:11:13.157Z,21.09
2018-06-18T21:13:41.185Z,21.23
2018-06-18T21:16:10.735Z,21.09
2018-06-18T21:18:40.677Z,20.79
2018-06-18T21:21:08.829Z,21.08
2018-06-18T21:23:37.164Z,21.02
2018-06-18T21:26:05.429Z,20.86
2018-06-18T21:28:33.497Z,20.91
2018-06-18T21:31:02.770Z,20.67
2018-06-18T21:33:30.910Z,20.83
2018-06-18T21:35:59.096Z,20.80
2018-06-18T21:38:28.951Z,20.68
2018-06-18T21:40:58.116Z,20.64
2018-06-18T21:43:26.821Z,20.69
2018-06-18T21:45:55.135Z,20.67
2018-06-18T21:48:24.243Z,20.65
2018-06-18T21:50:53.448Z,20.63
2018-06-18T21:53:22.115Z,20.62
2018-06-18T21:55:50.348Z,20.60
2018-06-18T21:58:18.801Z,20.58
2018-06-18T22:00:49.161Z,20.55
2018-06-18T22:03:18.014Z,20.52
2018-06-18T22:05:46.368Z,20.48
2018-06-18T22:08:16.283Z,20.43
2018-06-18T22:10:44.989Z,19.71
2018-06-18T22:13:13.118Z,20.26
2018-06-18T22:15:41.316Z,20.31
2018-06-18T22:18:09.662Z,19.97
2018-06-18T22:20:38.195Z,19.95
2018-06-18T22:23:07.184Z,20.11
2018-06-18T22:25:35.280Z,20.09
2018-06-18T22:28:05.294Z,19.97
2018-06-18T22:30:33.690Z,20.15
2018-06-18T22:33:03.990Z,19.94
2018-06-18T22:35:32.746Z,20.11
2018-06-18T22:38:06.340Z,19.98
2018-06-18T22:40:34.555Z,20.04
2018-06-18T22:43:02.712Z,19.89
2018-06-18T22:45:31.484Z,19.84
2018-06-18T22:47:59.739Z,19.90
2018-06-18T22:50:28.435Z,19.85
2018-06-18T22:52:56.997Z,19.85
2018-06-18T22:55:25.451Z,19.82
2018-06-18T22:57:53.543Z,19.56
2018-06-18T23:00:21.963Z,19.73
2018-06-18T23:02:50.250Z,19.70
2018-06-18T23:05:18.335Z,19.64
2018-06-18T23:07:46.717Z,19.38
2018-06-18T23:10:14.871Z,19.50
2018-06-18T23:12:45.241Z,19.44
2018-06-18T23:15:14.514Z,18.95
2018-06-18T23:17:42.619Z,19.33
2018-06-18T23:20:10.862Z,19.29
2018-06-18T23:22:39.623Z,19.27
2018-06-18T23:25:08.149Z,19.21
2018-06-18T23:27:36.618Z,19.13
2018-06-18T23:30:05.772Z,19.09
2018-06-18T23:32:34.079Z,18.85
2018-06-18T23:35:02.937Z,18.82
2018-06-18T23:37:31.072Z,18.99
2018-06-18T23:39:59.478Z,18.82
2018-06-18T23:42:29.142Z,17.14
2018-06-18T23:44:58.204Z,18.34
2018-06-18T23:47:26.737Z,18.80
2018-06-18T23:49:54.987Z,18.78
2018-06-18T23:52:23.479Z,18.78
2018-06-18T23:54:51.909Z,18.76
2018-06-18T23:57:20.235Z,18.52
2018-06-18T23:59:49.228Z,18.62
